sensor_id;sensor_type;location;lat;lon;timestamp;pressure;altitude;pressure_sealevel;temperature;humidity
8101;BME280;4093;53.470;9.832;2023-05-20T00:01:27;102640.97;;;15.71;53.05
8101;BME280;4093;53.470;9.832;2023-05-20T00:03:54;102622.97;;;15.36;54.54
8101;BME280;4093;53.470;9.832;2023-05-20T00:06:23;102644.28;;;15.92;53.80
8101;BME280;4093;53.470;9.832;2023-05-20T00:08:52;102641.53;;;16.09;53.24
8101;BME280;4093;53.470;9.832;2023-05-20T00:11:21;102645.91;;;16.04;53.32
8101;BME280;4093;53.470;9.832;2023-05-20T00:13:48;102638.31;;;15.76;53.50
8101;BME280;4093;53.470;9.832;2023-05-20T00:16:16;102633.19;;;15.64;54.35
8101;BME280;4093;53.470;9.832;2023-05-20T00:18:44;102641.72;;;15.84;53.73
8101;BME280;4093;53.470;9.832;2023-05-20T00:21:11;102629.81;;;15.49;55.37
8101;BME280;4093;53.470;9.832;2023-05-20T00:23:39;102634.16;;;15.47;54.83
8101;BME280;4093;53.470;9.832;2023-05-20T00:26:08;102638.56;;;15.42;54.99
8101;BME280;4093;53.470;9.832;2023-05-20T00:28:36;102639.41;;;15.44;55.43
8101;BME280;4093;53.470;9.832;2023-05-20T00:31:04;102636.88;;;15.34;54.28
8101;BME280;4093;53.470;9.832;2023-05-20T00:33:32;102652.50;;;15.37;55.10
8101;BME280;4093;53.470;9.832;2023-05-20T00:36:01;102645.53;;;15.40;55.62
8101;BME280;4093;53.470;9.832;2023-05-20T00:38:29;102638.13;;;14.44;56.73
8101;BME280;4093;53.470;9.832;2023-05-20T00:40:57;102657.22;;;14.44;57.06
8101;BME280;4093;53.470;9.832;2023-05-20T00:43:26;102648.47;;;14.80;55.59
8101;BME280;4093;53.470;9.832;2023-05-20T00:45:54;102651.00;;;14.88;55.59
8101;BME280;4093;53.470;9.832;2023-05-20T00:48:22;102654.47;;;14.93;55.18
8101;BME280;4093;53.470;9.832;2023-05-20T00:50:50;102648.63;;;13.65;58.59
8101;BME280;4093;53.470;9.832;2023-05-20T00:53:18;102650.97;;;15.02;55.59
8101;BME280;4093;53.470;9.832;2023-05-20T00:55:46;102586.91;;;14.63;55.11
8101;BME280;4093;53.470;9.832;2023-05-20T00:58:14;102650.00;;;15.18;55.81
8101;BME280;4093;53.470;9.832;2023-05-20T01:00:43;102641.59;;;14.53;56.53
8101;BME280;4093;53.470;9.832;2023-05-20T01:03:11;102632.13;;;14.06;57.31
8101;BME280;4093;53.470;9.832;2023-05-20T01:05:39;102645.16;;;13.93;58.34
8101;BME280;4093;53.470;9.832;2023-05-20T01:08:08;102647.75;;;13.97;58.01
8101;BME280;4093;53.470;9.832;2023-05-20T01:10:38;102639.97;;;13.71;58.56
8101;BME280;4093;53.470;9.832;2023-05-20T01:13:10;102652.94;;;14.16;57.96
8101;BME280;4093;53.470;9.832;2023-05-20T01:15:41;102649.38;;;14.50;56.49
8101;BME280;4093;53.470;9.832;2023-05-20T01:18:14;102646.03;;;13.84;58.50
8101;BME280;4093;53.470;9.832;2023-05-20T01:20:45;102625.06;;;14.70;57.00
8101;BME280;4093;53.470;9.832;2023-05-20T01:23:17;102639.84;;;14.49;56.92
8101;BME280;4093;53.470;9.832;2023-05-20T01:25:45;102638.94;;;14.75;56.13
8101;BME280;4093;53.470;9.832;2023-05-20T01:28:13;102650.22;;;14.74;55.96
8101;BME280;4093;53.470;9.832;2023-05-20T01:30:47;102651.22;;;13.90;58.57
8101;BME280;4093;53.470;9.832;2023-05-20T01:33:19;102632.16;;;13.99;57.93
8101;BME280;4093;53.470;9.832;2023-05-20T01:35:47;102650.31;;;14.32;57.52
8101;BME280;4093;53.470;9.832;2023-05-20T01:38:18;102637.31;;;14.28;57.09
8101;BME280;4093;53.470;9.832;2023-05-20T01:40:47;102618.31;;;13.51;58.88
8101;BME280;4093;53.470;9.832;2023-05-20T01:43:16;102638.22;;;13.75;59.02
8101;BME280;4093;53.470;9.832;2023-05-20T01:45:44;102652.94;;;14.09;58.37
8101;BME280;4093;53.470;9.832;2023-05-20T01:48:12;102633.00;;;13.59;59.39
8101;BME280;4093;53.470;9.832;2023-05-20T01:50:39;102652.97;;;13.73;59.77
8101;BME280;4093;53.470;9.832;2023-05-20T01:53:08;102646.88;;;14.03;58.72
8101;BME280;4093;53.470;9.832;2023-05-20T01:55:37;102637.34;;;13.85;58.17
8101;BME280;4093;53.470;9.832;2023-05-20T01:58:05;102627.75;;;13.21;60.22
8101;BME280;4093;53.470;9.832;2023-05-20T02:00:33;102659.88;;;14.00;59.73
8101;BME280;4093;53.470;9.832;2023-05-20T02:03:01;102652.06;;;13.49;59.63
8101;BME280;4093;53.470;9.832;2023-05-20T02:05:29;102663.34;;;14.12;59.30
8101;BME280;4093;53.470;9.832;2023-05-20T02:07:57;102652.97;;;13.67;59.81
8101;BME280;4093;53.470;9.832;2023-05-20T02:10:25;102656.41;;;14.16;58.48
8101;BME280;4093;53.470;9.832;2023-05-20T02:12:54;102638.22;;;13.65;58.63
8101;BME280;4093;53.470;9.832;2023-05-20T02:15:22;102637.25;;;13.11;60.93
8101;BME280;4093;53.470;9.832;2023-05-20T02:17:49;102638.03;;;12.90;61.47
8101;BME280;4093;53.470;9.832;2023-05-20T02:20:17;102606.19;;;13.57;59.19
8101;BME280;4093;53.470;9.832;2023-05-20T02:22:45;102647.75;;;13.51;60.77
8101;BME280;4093;53.470;9.832;2023-05-20T02:25:13;102639.06;;;13.63;59.64
8101;BME280;4093;53.470;9.832;2023-05-20T02:27:41;102646.88;;;13.81;60.27
8101;BME280;4093;53.470;9.832;2023-05-20T02:30:10;102633.78;;;13.18;61.03
8101;BME280;4093;53.470;9.832;2023-05-20T02:32:38;102627.81;;;13.29;60.97
8101;BME280;4093;53.470;9.832;2023-05-20T02:35:06;102627.69;;;12.95;61.69
8101;BME280;4093;53.470;9.832;2023-05-20T02:37:34;102643.38;;;13.27;61.18
8101;BME280;4093;53.470;9.832;2023-05-20T02:40:06;102635.38;;;12.78;62.95
8101;BME280;4093;53.470;9.832;2023-05-20T02:42:34;102637.31;;;13.27;61.24
8101;BME280;4093;53.470;9.832;2023-05-20T02:45:03;102636.47;;;14.03;59.13
8101;BME280;4093;53.470;9.832;2023-05-20T02:47:32;102638.25;;;13.70;60.51
8101;BME280;4093;53.470;9.832;2023-05-20T02:50:00;102639.06;;;13.57;60.80
8101;BME280;4093;53.470;9.832;2023-05-20T02:52:27;102637.34;;;14.03;59.87
8101;BME280;4093;53.470;9.832;2023-05-20T02:54:55;102630.41;;;13.69;60.73
8101;BME280;4093;53.470;9.832;2023-05-20T02:57:23;102639.06;;;14.20;59.14
8101;BME280;4093;53.470;9.832;2023-05-20T02:59:52;102639.03;;;14.27;59.10
8101;BME280;4093;53.470;9.832;2023-05-20T03:02:20;102626.06;;;14.10;59.69
8101;BME280;4093;53.470;9.832;2023-05-20T03:04:50;102624.34;;;13.94;60.20
8101;BME280;4093;53.470;9.832;2023-05-20T03:07:20;102633.91;;;13.83;60.42
8101;BME280;4093;53.470;9.832;2023-05-20T03:09:48;102623.38;;;13.08;62.54
8101;BME280;4093;53.470;9.832;2023-05-20T03:12:15;102640.72;;;13.16;62.05
8101;BME280;4093;53.470;9.832;2023-05-20T03:14:43;102587.84;;;12.82;63.10
8101;BME280;4093;53.470;9.832;2023-05-20T03:17:11;102663.38;;;13.79;60.94
8101;BME280;4093;53.470;9.832;2023-05-20T03:19:38;102650.34;;;13.68;62.06
8101;BME280;4093;53.470;9.832;2023-05-20T03:22:07;102653.84;;;13.92;60.78
8101;BME280;4093;53.470;9.832;2023-05-20T03:24:35;102635.59;;;13.32;62.91
8101;BME280;4093;53.470;9.832;2023-05-20T03:27:04;102646.00;;;13.32;63.76
8101;BME280;4093;53.470;9.832;2023-05-20T03:29:32;102648.59;;;13.39;63.96
8101;BME280;4093;53.470;9.832;2023-05-20T03:31:59;102652.06;;;13.46;63.71
8101;BME280;4093;53.470;9.832;2023-05-20T03:34:27;102647.75;;;13.82;63.17
8101;BME280;4093;53.470;9.832;2023-05-20T03:36:55;102650.38;;;13.83;63.51
8101;BME280;4093;53.470;9.832;2023-05-20T03:39:26;102653.78;;;13.30;66.19
8101;BME280;4093;53.470;9.832;2023-05-20T03:41:54;102638.06;;;13.00;66.90
8101;BME280;4093;53.470;9.832;2023-05-20T03:44:22;102658.03;;;13.11;67.66
8101;BME280;4093;53.470;9.832;2023-05-20T03:46:50;102654.66;;;13.40;66.98
8101;BME280;4093;53.470;9.832;2023-05-20T03:49:17;102635.28;;;12.52;70.38
8101;BME280;4093;53.470;9.832;2023-05-20T03:51:45;102652.06;;;13.41;67.87
8101;BME280;4093;53.470;9.832;2023-05-20T03:54:13;102652.81;;;13.01;70.04
8101;BME280;4093;53.470;9.832;2023-05-20T03:56:43;102658.19;;;13.70;68.85
8101;BME280;4093;53.470;9.832;2023-05-20T03:59:12;102661.59;;;14.24;67.15
8101;BME280;4093;53.470;9.832;2023-05-20T04:01:40;102656.41;;;13.72;68.09
8101;BME280;4093;53.470;9.832;2023-05-20T04:04:08;102665.03;;;14.56;65.89
8101;BME280;4093;53.470;9.832;2023-05-20T04:06:35;102656.19;;;14.94;64.12
8101;BME280;4093;53.470;9.832;2023-05-20T04:09:03;102657.59;;;15.54;63.26
8101;BME280;4093;53.470;9.832;2023-05-20T04:11:31;102647.63;;;14.69;65.26
8101;BME280;4093;53.470;9.832;2023-05-20T04:14:00;102652.78;;;14.89;64.97
8101;BME280;4093;53.470;9.832;2023-05-20T04:16:28;102662.47;;;13.69;69.17
8101;BME280;4093;53.470;9.832;2023-05-20T04:18:56;102658.13;;;13.42;70.77
8101;BME280;4093;53.470;9.832;2023-05-20T04:21:24;102658.91;;;13.16;71.64
8101;BME280;4093;53.470;9.832;2023-05-20T04:23:52;102664.19;;;13.33;71.59
8101;BME280;4093;53.470;9.832;2023-05-20T04:26:20;102668.44;;;13.20;72.46
8101;BME280;4093;53.470;9.832;2023-05-20T04:28:48;102674.63;;;14.07;70.69
8101;BME280;4093;53.470;9.832;2023-05-20T04:31:17;102664.25;;;13.92;70.02
8101;BME280;4093;53.470;9.832;2023-05-20T04:33:52;102671.16;;;13.71;71.00
8101;BME280;4093;53.470;9.832;2023-05-20T04:36:19;102668.53;;;14.25;69.48
8101;BME280;4093;53.470;9.832;2023-05-20T04:38:48;102661.63;;;14.08;70.22
8101;BME280;4093;53.470;9.832;2023-05-20T04:41:15;102661.63;;;13.62;72.24
8101;BME280;4093;53.470;9.832;2023-05-20T04:43:43;102672.88;;;14.12;71.88
8101;BME280;4093;53.470;9.832;2023-05-20T04:46:11;102651.00;;;14.94;68.01
8101;BME280;4093;53.470;9.832;2023-05-20T04:48:41;102640.75;;;14.51;69.85
8101;BME280;4093;53.470;9.832;2023-05-20T04:51:09;102636.50;;;14.04;71.36
8101;BME280;4093;53.470;9.832;2023-05-20T04:53:36;102663.22;;;14.77;69.99
8101;BME280;4093;53.470;9.832;2023-05-20T04:56:05;102658.13;;;14.28;71.10
8101;BME280;4093;53.470;9.832;2023-05-20T04:58:33;102652.66;;;15.14;68.45
8101;BME280;4093;53.470;9.832;2023-05-20T05:01:01;102651.69;;;15.27;68.19
8101;BME280;4093;53.470;9.832;2023-05-20T05:03:29;102649.88;;;16.41;65.33
8101;BME280;4093;53.470;9.832;2023-05-20T05:05:58;102641.75;;;15.81;65.99
8101;BME280;4093;53.470;9.832;2023-05-20T05:08:26;102643.09;;;18.12;60.65
8101;BME280;4093;53.470;9.832;2023-05-20T05:10:53;102629.00;;;17.68;60.32
8101;BME280;4093;53.470;9.832;2023-05-20T05:13:21;102631.88;;;17.53;61.49
8101;BME280;4093;53.470;9.832;2023-05-20T05:15:57;102627.75;;;16.70;63.51
8101;BME280;4093;53.470;9.832;2023-05-20T05:18:25;102628.59;;;18.83;59.24
8101;BME280;4093;53.470;9.832;2023-05-20T05:20:59;102623.84;;;18.58;59.49
8101;BME280;4093;53.470;9.832;2023-05-20T05:23:27;102624.88;;;18.51;59.07
8101;BME280;4093;53.470;9.832;2023-05-20T05:25:55;102597.25;;;17.35;61.30
8101;BME280;4093;53.470;9.832;2023-05-20T05:28:23;102620.88;;;17.87;60.93
8101;BME280;4093;53.470;9.832;2023-05-20T05:30:53;102621.41;;;18.04;59.78
8101;BME280;4093;53.470;9.832;2023-05-20T05:33:21;102619.34;;;19.44;57.75
8101;BME280;4093;53.470;9.832;2023-05-20T05:35:49;102609.94;;;19.35;57.12
8101;BME280;4093;53.470;9.832;2023-05-20T05:38:19;102605.91;;;18.40;58.76
8101;BME280;4093;53.470;9.832;2023-05-20T05:40:46;102612.44;;;17.66;62.15
8101;BME280;4093;53.470;9.832;2023-05-20T05:43:14;102603.53;;;20.16;55.82
8101;BME280;4093;53.470;9.832;2023-05-20T05:45:42;102608.56;;;22.42;51.01
8101;BME280;4093;53.470;9.832;2023-05-20T05:48:09;102605.09;;;19.90;56.21
8101;BME280;4093;53.470;9.832;2023-05-20T05:50:46;102592.28;;;20.10;54.00
8101;BME280;4093;53.470;9.832;2023-05-20T05:53:14;102602.78;;;21.01;54.43
8101;BME280;4093;53.470;9.832;2023-05-20T05:55:44;102597.06;;;20.88;53.13
8101;BME280;4093;53.470;9.832;2023-05-20T05:58:12;102592.50;;;24.59;46.12
8101;BME280;4093;53.470;9.832;2023-05-20T06:00:40;102602.19;;;21.99;47.90
8101;BME280;4093;53.470;9.832;2023-05-20T06:03:08;102598.84;;;23.33;47.74
8101;BME280;4093;53.470;9.832;2023-05-20T06:05:36;102611.31;;;20.81;52.54
8101;BME280;4093;53.470;9.832;2023-05-20T06:08:04;102597.03;;;20.29;52.97
8101;BME280;4093;53.470;9.832;2023-05-20T06:10:31;102602.03;;;20.05;53.95
8101;BME280;4093;53.470;9.832;2023-05-20T06:13:01;102603.69;;;19.41;55.70
8101;BME280;4093;53.470;9.832;2023-05-20T06:15:28;102597.44;;;21.59;51.94
8101;BME280;4093;53.470;9.832;2023-05-20T06:17:56;102590.53;;;23.85;46.85
8101;BME280;4093;53.470;9.832;2023-05-20T06:20:24;102581.56;;;25.56;42.62
8101;BME280;4093;53.470;9.832;2023-05-20T06:22:51;102569.13;;;22.84;47.34
8101;BME280;4093;53.470;9.832;2023-05-20T06:25:19;102583.72;;;21.99;48.96
8101;BME280;4093;53.470;9.832;2023-05-20T06:27:48;102575.88;;;25.47;43.88
8101;BME280;4093;53.470;9.832;2023-05-20T06:30:17;102576.22;;;24.49;45.38
8101;BME280;4093;53.470;9.832;2023-05-20T06:32:45;102581.63;;;22.57;48.32
8101;BME280;4093;53.470;9.832;2023-05-20T06:35:13;102590.25;;;19.17;55.31
8101;BME280;4093;53.470;9.832;2023-05-20T06:37:41;102594.41;;;18.47;58.42
8101;BME280;4093;53.470;9.832;2023-05-20T06:40:10;102591.84;;;21.68;51.62
8101;BME280;4093;53.470;9.832;2023-05-20T06:42:38;102594.44;;;19.96;54.28
8101;BME280;4093;53.470;9.832;2023-05-20T06:45:07;102593.13;;;20.11;54.10
8101;BME280;4093;53.470;9.832;2023-05-20T06:47:37;102593.13;;;19.42;55.55
8101;BME280;4093;53.470;9.832;2023-05-20T06:50:05;102592.50;;;19.33;57.70
8101;BME280;4093;53.470;9.832;2023-05-20T06:52:33;102591.78;;;19.62;56.84
8101;BME280;4093;53.470;9.832;2023-05-20T06:55:00;102588.41;;;20.85;53.91
8101;BME280;4093;53.470;9.832;2023-05-20T06:57:28;102572.81;;;23.24;48.07
8101;BME280;4093;53.470;9.832;2023-05-20T06:59:56;102569.09;;;21.90;51.10
8101;BME280;4093;53.470;9.832;2023-05-20T07:02:24;102573.72;;;20.46;54.12
8101;BME280;4093;53.470;9.832;2023-05-20T07:04:53;102571.91;;;23.25;48.92
8101;BME280;4093;53.470;9.832;2023-05-20T07:07:21;102557.66;;;25.41;44.77
8101;BME280;4093;53.470;9.832;2023-05-20T07:09:48;102538.53;;;26.35;42.03
8101;BME280;4093;53.470;9.832;2023-05-20T07:12:16;102551.06;;;23.40;46.94
8101;BME280;4093;53.470;9.832;2023-05-20T07:14:44;102567.63;;;24.63;45.91
8101;BME280;4093;53.470;9.832;2023-05-20T07:17:11;102538.28;;;23.51;47.91
8101;BME280;4093;53.470;9.832;2023-05-20T07:19:39;102553.50;;;24.24;46.90
8101;BME280;4093;53.470;9.832;2023-05-20T07:22:08;102546.97;;;21.71;49.93
8101;BME280;4093;53.470;9.832;2023-05-20T07:24:37;102559.47;;;23.07;49.94
8101;BME280;4093;53.470;9.832;2023-05-20T07:27:04;102563.22;;;23.64;48.15
8101;BME280;4093;53.470;9.832;2023-05-20T07:29:33;102539.72;;;22.50;50.22
8101;BME280;4093;53.470;9.832;2023-05-20T07:32:01;102566.66;;;23.87;46.51
8101;BME280;4093;53.470;9.832;2023-05-20T07:34:29;102556.06;;;19.91;54.64
8101;BME280;4093;53.470;9.832;2023-05-20T07:36:57;102557.22;;;24.01;47.43
8101;BME280;4093;53.470;9.832;2023-05-20T07:39:26;102553.09;;;21.46;51.30
8101;BME280;4093;53.470;9.832;2023-05-20T07:41:55;102558.59;;;21.12;53.17
8101;BME280;4093;53.470;9.832;2023-05-20T07:44:23;102561.91;;;21.45;53.29
8101;BME280;4093;53.470;9.832;2023-05-20T07:46:52;102565.44;;;23.53;49.05
8101;BME280;4093;53.470;9.832;2023-05-20T07:49:20;102552.50;;;22.13;51.07
8101;BME280;4093;53.470;9.832;2023-05-20T07:51:48;102561.91;;;23.12;50.24
8101;BME280;4093;53.470;9.832;2023-05-20T07:54:15;102529.41;;;23.52;46.74
8101;BME280;4093;53.470;9.832;2023-05-20T07:56:44;102547.00;;;23.73;47.18
8101;BME280;4093;53.470;9.832;2023-05-20T07:59:12;102540.06;;;22.86;48.69
8101;BME280;4093;53.470;9.832;2023-05-20T08:01:40;102540.28;;;22.80;48.51
8101;BME280;4093;53.470;9.832;2023-05-20T08:04:08;102539.81;;;21.49;51.39
8101;BME280;4093;53.470;9.832;2023-05-20T08:06:36;102550.63;;;22.17;50.33
8101;BME280;4093;53.470;9.832;2023-05-20T08:09:05;102557.41;;;21.74;51.70
8101;BME280;4093;53.470;9.832;2023-05-20T08:11:33;102517.97;;;21.47;52.53
8101;BME280;4093;53.470;9.832;2023-05-20T08:14:02;102561.06;;;23.94;46.89
8101;BME280;4093;53.470;9.832;2023-05-20T08:16:30;102549.88;;;21.63;51.59
8101;BME280;4093;53.470;9.832;2023-05-20T08:18:57;102554.22;;;24.28;47.38
8101;BME280;4093;53.470;9.832;2023-05-20T08:21:25;102547.81;;;22.22;50.85
8101;BME280;4093;53.470;9.832;2023-05-20T08:23:54;102542.47;;;21.21;51.27
8101;BME280;4093;53.470;9.832;2023-05-20T08:26:21;102563.28;;;22.06;51.35
8101;BME280;4093;53.470;9.832;2023-05-20T08:28:49;102558.25;;;21.49;51.91
8101;BME280;4093;53.470;9.832;2023-05-20T08:31:18;102550.97;;;21.58;51.97
8101;BME280;4093;53.470;9.832;2023-05-20T08:33:46;102534.53;;;23.96;47.24
8101;BME280;4093;53.470;9.832;2023-05-20T08:36:14;102550.84;;;21.86;51.98
8101;BME280;4093;53.470;9.832;2023-05-20T08:38:42;102532.00;;;21.48;50.98
8101;BME280;4093;53.470;9.832;2023-05-20T08:41:10;102536.34;;;21.74;50.99
8101;BME280;4093;53.470;9.832;2023-05-20T08:43:37;102540.75;;;22.46;49.66
8101;BME280;4093;53.470;9.832;2023-05-20T08:46:05;102522.72;;;21.63;51.33
8101;BME280;4093;53.470;9.832;2023-05-20T08:48:34;102532.44;;;20.22;53.85
8101;BME280;4093;53.470;9.832;2023-05-20T08:51:02;102534.66;;;20.04;54.74
8101;BME280;4093;53.470;9.832;2023-05-20T08:53:30;102537.13;;;20.98;52.32
8101;BME280;4093;53.470;9.832;2023-05-20T08:55:59;102525.75;;;20.40;52.84
8101;BME280;4093;53.470;9.832;2023-05-20T08:58:29;102533.16;;;21.89;50.88
8101;BME280;4093;53.470;9.832;2023-05-20T09:00:57;102524.13;;;21.71;50.46
8101;BME280;4093;53.470;9.832;2023-05-20T09:03:25;102519.84;;;20.02;53.56
8101;BME280;4093;53.470;9.832;2023-05-20T09:06:02;102538.03;;;20.09;54.30
8101;BME280;4093;53.470;9.832;2023-05-20T09:08:30;102529.06;;;19.51;54.35
8101;BME280;4093;53.470;9.832;2023-05-20T09:10:58;102518.41;;;19.57;53.53
8101;BME280;4093;53.470;9.832;2023-05-20T09:13:26;102503.38;;;21.11;51.46
8101;BME280;4093;53.470;9.832;2023-05-20T09:15:54;102526.44;;;21.02;51.07
8101;BME280;4093;53.470;9.832;2023-05-20T09:18:22;102504.00;;;20.64;51.58
8101;BME280;4093;53.470;9.832;2023-05-20T09:20:50;102506.03;;;21.87;49.43
8101;BME280;4093;53.470;9.832;2023-05-20T09:23:20;102496.44;;;21.08;50.45
8101;BME280;4093;53.470;9.832;2023-05-20T09:25:48;102497.78;;;20.95;50.46
8101;BME280;4093;53.470;9.832;2023-05-20T09:28:18;102512.16;;;19.29;54.16
8101;BME280;4093;53.470;9.832;2023-05-20T09:30:48;102512.47;;;18.79;55.04
8101;BME280;4093;53.470;9.832;2023-05-20T09:33:16;102522.03;;;19.53;54.21
8101;BME280;4093;53.470;9.832;2023-05-20T09:35:44;102504.44;;;19.90;52.27
8101;BME280;4093;53.470;9.832;2023-05-20T09:38:14;102517.78;;;20.72;51.31
8101;BME280;4093;53.470;9.832;2023-05-20T09:40:44;102502.97;;;19.79;53.67
8101;BME280;4093;53.470;9.832;2023-05-20T09:43:14;102514.84;;;19.26;53.89
8101;BME280;4093;53.470;9.832;2023-05-20T09:45:43;102502.19;;;19.07;55.17
8101;BME280;4093;53.470;9.832;2023-05-20T09:48:12;102513.44;;;19.81;53.58
8101;BME280;4093;53.470;9.832;2023-05-20T09:50:40;102503.97;;;20.06;52.67
8101;BME280;4093;53.470;9.832;2023-05-20T09:53:09;102504.41;;;19.91;53.40
8101;BME280;4093;53.470;9.832;2023-05-20T09:55:38;102498.41;;;19.86;54.32
8101;BME280;4093;53.470;9.832;2023-05-20T09:58:08;102512.50;;;20.43;54.32
8101;BME280;4093;53.470;9.832;2023-05-20T10:00:38;102490.34;;;20.53;52.28
8101;BME280;4093;53.470;9.832;2023-05-20T10:03:07;102484.16;;;19.29;54.29
8101;BME280;4093;53.470;9.832;2023-05-20T10:05:36;102488.72;;;19.88;52.82
8101;BME280;4093;53.470;9.832;2023-05-20T10:08:23;102499.75;;;20.60;52.51
8101;BME280;4093;53.470;9.832;2023-05-20T10:11:01;102490.78;;;21.20;50.84
8101;BME280;4093;53.470;9.832;2023-05-20T10:13:44;102473.16;;;20.11;51.97
8101;BME280;4093;53.470;9.832;2023-05-20T10:16:22;102462.97;;;21.88;48.82
8101;BME280;4093;53.470;9.832;2023-05-20T10:19:04;102470.56;;;19.15;52.87
8101;BME280;4093;53.470;9.832;2023-05-20T10:21:37;102466.47;;;18.64;53.75
8101;BME280;4093;53.470;9.832;2023-05-20T10:24:05;102445.97;;;18.83;53.45
8101;BME280;4093;53.470;9.832;2023-05-20T10:26:34;102469.34;;;18.55;54.57
8101;BME280;4093;53.470;9.832;2023-05-20T10:29:15;102471.38;;;18.81;54.41
8101;BME280;4093;53.470;9.832;2023-05-20T10:31:43;102490.28;;;19.62;54.43
8101;BME280;4093;53.470;9.832;2023-05-20T10:34:14;102476.13;;;19.01;54.49
8101;BME280;4093;53.470;9.832;2023-05-20T10:36:44;102474.25;;;18.69;55.44
8101;BME280;4093;53.470;9.832;2023-05-20T10:39:14;102478.41;;;20.11;54.26
8101;BME280;4093;53.470;9.832;2023-05-20T10:41:43;102467.09;;;19.47;53.68
8101;BME280;4093;53.470;9.832;2023-05-20T10:44:10;102461.59;;;18.88;54.51
8101;BME280;4093;53.470;9.832;2023-05-20T10:46:39;102469.81;;;19.42;54.45
8101;BME280;4093;53.470;9.832;2023-05-20T10:49:32;102457.03;;;18.96;54.46
8101;BME280;4093;53.470;9.832;2023-05-20T10:52:01;102475.53;;;19.90;53.48
8101;BME280;4093;53.470;9.832;2023-05-20T10:54:34;102457.91;;;18.97;55.64
8101;BME280;4093;53.470;9.832;2023-05-20T10:57:05;102453.19;;;19.44;54.83
8101;BME280;4093;53.470;9.832;2023-05-20T10:59:35;102455.75;;;19.45;54.98
8101;BME280;4093;53.470;9.832;2023-05-20T11:02:04;102454.50;;;19.91;54.39
8101;BME280;4093;53.470;9.832;2023-05-20T11:04:32;102450.13;;;19.26;55.68
8101;BME280;4093;53.470;9.832;2023-05-20T11:06:59;102449.03;;;19.35;56.19
8101;BME280;4093;53.470;9.832;2023-05-20T11:09:28;102451.53;;;19.39;55.45
8101;BME280;4093;53.470;9.832;2023-05-20T11:11:57;102448.47;;;19.56;55.08
8101;BME280;4093;53.470;9.832;2023-05-20T11:14:27;102445.78;;;19.58;55.47
8101;BME280;4093;53.470;9.832;2023-05-20T11:16:55;102444.09;;;19.55;54.73
8101;BME280;4093;53.470;9.832;2023-05-20T11:19:25;102437.72;;;19.00;56.98
8101;BME280;4093;53.470;9.832;2023-05-20T11:21:53;102456.09;;;19.97;55.05
8101;BME280;4093;53.470;9.832;2023-05-20T11:24:25;102446.25;;;19.74;55.59
8101;BME280;4093;53.470;9.832;2023-05-20T11:26:53;102434.44;;;19.88;55.19
8101;BME280;4093;53.470;9.832;2023-05-20T11:29:21;102446.91;;;19.49;56.18
8101;BME280;4093;53.470;9.832;2023-05-20T11:31:49;102440.16;;;19.40;56.45
8101;BME280;4093;53.470;9.832;2023-05-20T11:34:19;102440.91;;;20.64;54.34
8101;BME280;4093;53.470;9.832;2023-05-20T11:36:56;102418.03;;;19.80;54.84
8101;BME280;4093;53.470;9.832;2023-05-20T11:39:25;102432.44;;;20.83;53.63
8101;BME280;4093;53.470;9.832;2023-05-20T11:41:56;102429.41;;;20.40;54.45
8101;BME280;4093;53.470;9.832;2023-05-20T11:44:24;102424.34;;;20.04;55.11
8101;BME280;4093;53.470;9.832;2023-05-20T11:46:58;102428.72;;;19.43;55.29
8101;BME280;4093;53.470;9.832;2023-05-20T11:49:26;102421.00;;;19.99;54.44
8101;BME280;4093;53.470;9.832;2023-05-20T11:51:55;102428.25;;;19.27;56.75
8101;BME280;4093;53.470;9.832;2023-05-20T11:54:23;102443.38;;;20.13;55.53
8101;BME280;4093;53.470;9.832;2023-05-20T11:56:53;102427.47;;;19.24;56.87
8101;BME280;4093;53.470;9.832;2023-05-20T11:59:22;102434.59;;;19.51;56.26
8101;BME280;4093;53.470;9.832;2023-05-20T12:01:50;102425.31;;;18.69;58.68
8101;BME280;4093;53.470;9.832;2023-05-20T12:04:18;102419.50;;;18.57;58.70
8101;BME280;4093;53.470;9.832;2023-05-20T12:06:46;102440.09;;;19.75;56.46
8101;BME280;4093;53.470;9.832;2023-05-20T12:09:15;102430.09;;;19.56;56.54
8101;BME280;4093;53.470;9.832;2023-05-20T12:11:43;102417.44;;;19.72;55.39
8101;BME280;4093;53.470;9.832;2023-05-20T12:14:11;102406.28;;;19.31;55.31
8101;BME280;4093;53.470;9.832;2023-05-20T12:16:38;102416.28;;;20.10;54.36
8101;BME280;4093;53.470;9.832;2023-05-20T12:19:06;102420.31;;;20.22;54.35
8101;BME280;4093;53.470;9.832;2023-05-20T12:21:34;102422.94;;;20.50;54.08
8101;BME280;4093;53.470;9.832;2023-05-20T12:24:03;102406.47;;;19.87;55.88
8101;BME280;4093;53.470;9.832;2023-05-20T12:26:33;102399.06;;;18.74;57.93
8101;BME280;4093;53.470;9.832;2023-05-20T12:29:01;102411.78;;;18.88;57.53
8101;BME280;4093;53.470;9.832;2023-05-20T12:31:29;102403.31;;;18.78;57.40
8101;BME280;4093;53.470;9.832;2023-05-20T12:34:00;102424.53;;;19.02;57.84
8101;BME280;4093;53.470;9.832;2023-05-20T12:36:28;102421.19;;;19.93;55.59
8101;BME280;4093;53.470;9.832;2023-05-20T12:38:56;102412.22;;;19.05;57.04
8101;BME280;4093;53.470;9.832;2023-05-20T12:41:24;102414.03;;;19.36;56.68
8101;BME280;4093;53.470;9.832;2023-05-20T12:43:53;102403.69;;;19.30;56.96
8101;BME280;4093;53.470;9.832;2023-05-20T12:46:21;102410.44;;;18.71;58.99
8101;BME280;4093;53.470;9.832;2023-05-20T12:48:49;102404.88;;;18.48;59.81
8101;BME280;4093;53.470;9.832;2023-05-20T12:51:17;102395.78;;;17.87;61.13
8101;BME280;4093;53.470;9.832;2023-05-20T12:53:45;102416.19;;;19.20;58.65
8101;BME280;4093;53.470;9.832;2023-05-20T12:56:13;102402.44;;;18.78;58.88
8101;BME280;4093;53.470;9.832;2023-05-20T12:58:41;102417.47;;;18.69;59.29
8101;BME280;4093;53.470;9.832;2023-05-20T13:01:10;102410.53;;;19.35;57.64
8101;BME280;4093;53.470;9.832;2023-05-20T13:03:38;102407.38;;;20.16;55.97
8101;BME280;4093;53.470;9.832;2023-05-20T13:06:05;102387.00;;;19.34;57.14
8101;BME280;4093;53.470;9.832;2023-05-20T13:08:33;102393.44;;;19.21;58.04
8101;BME280;4093;53.470;9.832;2023-05-20T13:11:01;102393.78;;;19.08;58.72
8101;BME280;4093;53.470;9.832;2023-05-20T13:13:29;102384.19;;;19.40;57.70
8101;BME280;4093;53.470;9.832;2023-05-20T13:15:57;102371.72;;;18.47;59.64
8101;BME280;4093;53.470;9.832;2023-05-20T13:18:26;102360.94;;;18.59;59.80